| time (UTC) | temp F | wind direction | speed knots | gust knots | rain 1hr in | rain 24hr in | rain mn in | humidity % | barometer mb |
| 20260506203718 | 82 | 114 | 7.8 | 8.7 | 0.00 | 0.00 | 0.00 | 20 | 1021.0 |
| 20260506202214 | 83 | 112 | 0.0 | 0.0 | 0.00 | 0.00 | 0.00 | 19 | 1021.4 |
| 20260506200711 | 82 | 90 | 0.0 | 0.0 | 0.00 | 0.00 | 0.00 | 19 | 1021.4 |
| 20260506195206 | 80 | 96 | 0.0 | 0.0 | 0.00 | 0.00 | 0.00 | 20 | 1021.7 |
| 20260506193704 | 81 | 138 | 0.0 | 0.0 | 0.00 | 0.00 | 0.00 | 21 | 1022.0 |
| 20260506192159 | 80 | 137 | 0.0 | 0.0 | 0.00 | 0.00 | 0.00 | 21 | 1021.7 |
| 20260506190656 | 79 | 136 | 0.0 | 0.0 | 0.00 | 0.00 | 0.00 | 22 | 1022.0 |
| 20260506185152 | 79 | 126 | 0.0 | 0.0 | 0.00 | 0.00 | 0.00 | 21 | 1022.5 |
| 20260506183649 | 78 | 123 | 0.0 | 0.0 | 0.00 | 0.00 | 0.00 | 22 | 1022.5 |
| 20260506182145 | 78 | 168 | 0.0 | 0.0 | 0.00 | 0.00 | 0.00 | 23 | 1022.5 |
| 20260506180643 | 77 | 102 | 0.0 | 0.0 | 0.00 | 0.00 | 0.00 | 23 | 1022.5 |
| 20260506175138 | 76 | 132 | 0.0 | 0.0 | 0.00 | 0.00 | 0.00 | 25 | 1022.5 |
| 20260506173637 | 76 | 144 | 0.0 | 0.0 | 0.00 | 0.00 | 0.00 | 25 | 1022.5 |
| 20260506172132 | 75 | 118 | 0.0 | 0.0 | 0.00 | 0.00 | 0.00 | 26 | 1022.5 |
| 20260506170631 | 74 | 92 | 0.0 | 0.0 | 0.00 | 0.00 | 0.00 | 26 | 1022.5 |
| 20260506165127 | 73 | 114 | 0.0 | 0.0 | 0.00 | 0.00 | 0.00 | 27 | 1022.5 |
| 20260506163623 | 72 | 73 | 0.0 | 0.0 | 0.00 | 0.00 | 0.00 | 28 | 1022.5 |
| 20260506162122 | 71 | 96 | 0.0 | 0.0 | 0.00 | 0.00 | 0.00 | 28 | 1022.0 |
| 20260506160619 | 71 | 136 | 0.0 | 0.0 | 0.00 | 0.00 | 0.00 | 29 | 1022.0 |
| 20260506155116 | 69 | 84 | 0.0 | 0.0 | 0.00 | 0.00 | 0.00 | 32 | 1021.7 |
| 20260506152323 | 68 | 160 | 0.0 | 0.0 | 0.00 | 0.00 | 0.00 | 32 | 1021.7 |
| 20260506150820 | 67 | 156 | 0.0 | 0.0 | 0.00 | 0.00 | 0.00 | 33 | 1021.7 |
| 20260506145316 | 67 | 119 | 0.0 | 0.0 | 0.00 | 0.00 | 0.00 | 34 | 1021.7 |
| 20260506143815 | 65 | 107 | 0.0 | 0.0 | 0.00 | 0.00 | 0.00 | 36 | 1021.7 |
| 20260506142313 | 65 | 92 | 0.0 | 0.0 | 0.00 | 0.00 | 0.00 | 37 | 1021.4 |
| 20260506140812 | 64 | 74 | 0.0 | 0.0 | 0.00 | 0.00 | 0.00 | 38 | 1021.4 |
| 20260506135308 | 63 | 79 | 0.0 | 0.0 | 0.00 | 0.00 | 0.00 | 38 | 1021.0 |
| 20260506133804 | 62 | 66 | 0.0 | 0.0 | 0.00 | 0.00 | 0.00 | 39 | 1020.6 |
| 20260506132301 | 60 | 238 | 0.0 | 0.0 | 0.00 | 0.00 | 0.00 | 41 | 1020.2 |
| 20260506130757 | 58 | 114 | 0.0 | 0.0 | 0.00 | 0.00 | 0.00 | 42 | 1020.2 |
| 20260506125256 | 59 | 90 | 0.0 | 0.0 | 0.00 | 0.00 | 0.00 | 42 | 1020.2 |
| 20260506123754 | 59 | 96 | 0.0 | 0.0 | 0.00 | 0.00 | 0.00 | 41 | 1019.9 |
| 20260506122252 | 59 | 84 | 0.0 | 0.0 | 0.00 | 0.00 | 0.00 | 40 | 1019.9 |
| 20260506120750 | 59 | 84 | 0.0 | 0.0 | 0.00 | 0.00 | 0.00 | 40 | 1019.9 |
| 20260506115249 | 59 | 84 | 0.0 | 0.0 | 0.00 | 0.00 | 0.00 | 39 | 1019.6 |
| 20260506113748 | 60 | 84 | 0.0 | 0.0 | 0.00 | 0.00 | 0.00 | 39 | 1019.6 |
| 20260506112245 | 59 | 85 | 0.0 | 0.0 | 0.00 | 0.00 | 0.00 | 39 | 1019.1 |
| 20260506110743 | 61 | 90 | 0.0 | 0.0 | 0.00 | 0.00 | 0.00 | 38 | 1019.1 |
| 20260506105240 | 60 | 90 | 0.0 | 0.0 | 0.00 | 0.00 | 0.00 | 36 | 1019.1 |
| 20260506103738 | 58 | 96 | 0.0 | 0.0 | 0.00 | 0.00 | 0.00 | 37 | 1019.1 |
| 20260506102236 | 58 | 96 | 0.0 | 0.0 | 0.00 | 0.00 | 0.00 | 37 | 1019.1 |
| 20260506100733 | 59 | 96 | 0.0 | 0.0 | 0.00 | 0.00 | 0.00 | 36 | 1018.8 |
| 20260506095231 | 60 | 96 | 0.0 | 0.0 | 0.00 | 0.00 | 0.00 | 35 | 1018.4 |
| 20260506093731 | 61 | 96 | 0.0 | 0.0 | 0.00 | 0.00 | 0.00 | 35 | 1018.4 |
| 20260506092229 | 60 | 96 | 0.0 | 0.0 | 0.00 | 0.00 | 0.00 | 35 | 1018.4 |
| 20260506090727 | 61 | 96 | 0.0 | 0.0 | 0.00 | 0.00 | 0.00 | 34 | 1018.1 |
| 20260506085228 | 60 | 96 | 0.0 | 0.0 | 0.00 | 0.00 | 0.00 | 34 | 1018.1 |
| 20260506083724 | 61 | 96 | 0.0 | 0.0 | 0.00 | 0.00 | 0.00 | 33 | 1018.1 |
| 20260506082220 | 62 | 91 | 0.0 | 0.0 | 0.00 | 0.00 | 0.00 | 32 | 1018.1 |
| 20260506080719 | 62 | 312 | 0.0 | 0.0 | 0.00 | 0.00 | 0.00 | 32 | 1018.1 |
| 20260506072211 | 63 | 312 | 0.0 | 0.0 | 0.00 | 0.00 | 0.00 | 31 | 1018.1 |
| 20260506070708 | 64 | 302 | 0.0 | 0.0 | 0.00 | 0.00 | 0.00 | 31 | 1017.8 |
| 20260506062200 | 65 | 85 | 0.0 | 0.0 | 0.00 | 0.00 | 0.00 | 31 | 1017.8 |
| 20260506060658 | 65 | 306 | 0.0 | 0.0 | 0.00 | 0.00 | 0.00 | 31 | 1017.3 |
| 20260506050648 | 71 | 238 | 0.0 | 0.0 | 0.00 | 0.00 | 0.00 | 28 | 1017.0 |
| 20260506043642 | 71 | 239 | 0.0 | 0.0 | 0.00 | 0.00 | 0.00 | 28 | 1016.3 |
| 20260506042142 | 72 | 238 | 0.0 | 0.0 | 0.00 | 0.00 | 0.00 | 27 | 1016.3 |
| 20260506040641 | 72 | 245 | 0.0 | 0.0 | 0.00 | 0.00 | 0.00 | 27 | 1016.3 |
| 20260506035137 | 73 | 216 | 0.0 | 0.0 | 0.00 | 0.00 | 0.00 | 26 | 1015.5 |
| 20260506033634 | 73 | 169 | 0.0 | 0.0 | 0.00 | 0.00 | 0.00 | 25 | 1015.5 |
| 20260506032131 | 73 | 156 | 0.0 | 0.0 | 0.00 | 0.00 | 0.00 | 24 | 1015.2 |
| 20260506030629 | 73 | 126 | 0.0 | 0.0 | 0.00 | 0.00 | 0.00 | 23 | 1015.2 |
| 20260506025124 | 74 | 150 | 0.0 | 0.0 | 0.00 | 0.00 | 0.00 | 22 | 1015.2 |
| 20260506023621 | 74 | 132 | 0.0 | 0.0 | 0.00 | 0.00 | 0.00 | 22 | 1015.2 |
| 20260506022118 | 74 | 156 | 0.0 | 0.0 | 0.00 | 0.00 | 0.00 | 21 | 1014.9 |
| 20260506020615 | 75 | 138 | 0.0 | 0.0 | 0.00 | 0.00 | 0.00 | 20 | 1014.9 |
| 20260506015113 | 75 | 150 | 0.0 | 0.0 | 0.00 | 0.00 | 0.00 | 19 | 1014.4 |
| 20260506013611 | 76 | 132 | 0.0 | 0.0 | 0.00 | 0.00 | 0.00 | 19 | 1014.4 |
| 20260506012105 | 77 | 234 | 0.0 | 0.0 | 0.00 | 0.00 | 0.00 | 18 | 1014.9 |
| 20260506010605 | 76 | 236 | 0.0 | 0.0 | 0.00 | 0.00 | 0.00 | 19 | 1014.4 |
| 20260506005100 | 77 | 138 | 0.0 | 0.0 | 0.00 | 0.00 | 0.00 | 19 | 1014.4 |
| 20260506003556 | 79 | 71 | 0.0 | 0.0 | 0.00 | 0.00 | 0.00 | 17 | 1014.4 |
| 20260506002056 | 79 | 244 | 0.0 | 0.0 | 0.00 | 0.00 | 0.00 | 17 | 1014.1 |
| 20260506000553 | 77 | 199 | 0.0 | 0.0 | 0.00 | 0.00 | 0.00 | 18 | 1014.4 |
| 20260505235051 | 76 | 246 | 0.0 | 0.0 | 0.00 | 0.00 | 0.00 | 18 | 1014.1 |
| 20260505233548 | 77 | 12 | 0.0 | 0.0 | 0.00 | 0.00 | 0.00 | 17 | 1014.4 |
| 20260505232046 | 76 | 210 | 0.0 | 0.0 | 0.00 | 0.00 | 0.00 | 18 | 1014.1 |
| 20260505230544 | 77 | 188 | 0.0 | 0.0 | 0.00 | 0.00 | 0.00 | 18 | 1014.4 |
| 20260505225039 | 76 | 150 | 0.0 | 0.0 | 0.00 | 0.00 | 0.00 | 20 | 1014.9 |
| 20260505223536 | 78 | 167 | 0.0 | 0.0 | 0.00 | 0.00 | 0.00 | 18 | 1014.9 |
| 20260505222036 | 77 | 139 | 0.0 | 0.0 | 0.00 | 0.00 | 0.00 | 19 | 1015.2 |
| 20260505220533 | 77 | 108 | 0.0 | 0.0 | 0.00 | 0.00 | 0.00 | 18 | 1015.2 |
| 20260505215032 | 75 | 150 | 0.0 | 0.0 | 0.00 | 0.00 | 0.00 | 18 | 1015.2 |
| 20260505213530 | 74 | 192 | 4.3 | 5.2 | 0.00 | 0.00 | 0.00 | 20 | 1015.5 |
| 20260505212025 | 75 | 148 | 0.0 | 0.0 | 0.00 | 0.00 | 0.00 | 21 | 1015.9 |
| 20260505210522 | 73 | 162 | 0.0 | 0.0 | 0.00 | 0.00 | 0.00 | 21 | 1015.9 |
| 20260505205020 | 74 | 155 | 7.0 | 8.7 | 0.00 | 0.00 | 0.00 | 22 | 1016.3 |